Flight Track Log - Related Links

Times and Time Zones

All times are in EDT time to prevent confusion due to time zone crossing. See the CSN6078 flight status page for this flight to view local times or setup timezone preferences in your user account.

Time Position Orientation Groundspeed Altitude Reporting Facility
EDT Latitude Longitude Course Direction KTS MPH feet Rate Location/Type
Thu 08:55:00 AM 33.6106 126.4913 359° North  Level Estimated
Thu 08:56:00 AM 33.7099 126.4897 359° North  Level Estimated
Thu 08:57:00 AM 33.8092 126.4880 359° North  Level Estimated
Thu 08:58:00 AM 33.9085 126.4863 359° North  Level Estimated
Thu 08:59:00 AM 34.0046 126.4846 359° North  Level Estimated
Thu 09:00:00 AM 34.1008 126.4830 359° North  Level Estimated
Thu 09:01:00 AM 34.1969 126.4813 359° North  Level Estimated
Thu 09:02:00 AM 34.2931 126.4797 359° North  Level Estimated
Thu 09:03:00 AM 34.3892 126.4780 359° North  Level Estimated
Thu 09:04:00 AM 34.4854 126.4763 359° North  Level Estimated
Thu 09:05:00 AM 34.5815 126.4747 359° North  Level Estimated
Thu 09:06:00 AM 34.6777 126.4730 359° North  Level Estimated
Thu 09:07:00 AM 34.7738 126.4713 359° North  Level Estimated
Thu 09:08:00 AM 34.8699 126.4697 359° North  Level Estimated
Thu 09:09:00 AM 34.9661 126.4680 359° North  Level Estimated
Thu 09:10:00 AM 35.0622 126.4663 359° North  Level Estimated
Thu 09:11:00 AM 35.1584 126.4646 359° North  Level Estimated
Thu 09:12:00 AM 35.2545 126.4629 359° North  Level Estimated
Thu 09:13:00 AM 35.3507 126.4612 359° North  Level Estimated
Thu 09:13:31 AM 34.4572 124.5824 350° North 467 537 32,600  Level FlightAware ADS-B
Thu 09:14:00 AM 35.4468 126.4595 359° North  Level Estimated
Thu 09:14:14 AM 34.5406 124.5651 350° North 464 534 33,400  Level FlightAware ADS-B
Thu 09:16:13 AM 34.7933 124.5119 350° North 470 541 34,000 225 Climbing FlightAware ADS-B
Thu 09:16:54 AM 34.8874 124.4925 350° North 468 539 34,000  Level FlightAware ADS-B
Thu 09:17:33 AM 34.9682 124.4754 350° North 469 540 34,000  Level FlightAware ADS-B
Thu 09:18:14 AM 35.0577 124.4564 350° North 469 540 34,000 60 Level FlightAware ADS-B
Thu 09:19:13 AM 35.1761 124.4315 350° North 470 541 34,100 61 Climbing FlightAware ADS-B
Thu 09:19:53 AM 35.2705 124.4116 350° North 472 543 34,100  Level FlightAware ADS-B
Thu 09:20:29 AM 35.3501 124.3947 350° North 472 543 34,100  Level FlightAware ADS-B
Thu 09:21:14 AM 35.4452 124.3745 350° North 471 542 34,100  Level FlightAware ADS-B
Thu 09:21:46 AM 35.5127 124.3600 350° North 471 542 34,100  Level FlightAware ADS-B
Thu 09:22:28 AM 35.6037 124.3406 350° North 471 542 34,100  Level FlightAware ADS-B
Thu 09:23:14 AM 35.6972 124.3204 350° North 474 545 34,100  Level FlightAware ADS-B
Thu 09:23:53 AM 35.7876 124.3015 350° North 474 545 34,100  Level FlightAware ADS-B
Thu 09:24:34 AM 35.8752 124.2834 353° North 473 544 34,100  Level FlightAware ADS-B
Thu 09:24:53 AM 35.9146 124.2820 North 479 551 34,100  Level FlightAware ADS-B
Thu 09:25:14 AM 35.9644 124.2933 16° North 486 559 34,100  Level FlightAware ADS-B
Thu 09:25:51 AM 36.0437 124.3232 13° North 485 558 34,100  Level FlightAware ADS-B
Thu 09:26:32 AM 36.1349 124.3381 North 476 548 34,100  Level FlightAware ADS-B
Thu 09:26:53 AM 36.1812 124.3377 357° North 472 543 34,100  Level FlightAware ADS-B
Thu 09:27:33 AM 36.2600 124.3251 350° North 465 535 34,100  Level FlightAware ADS-B
Thu 09:28:13 AM 36.3498 124.3058 350° North 465 535 34,100  Level FlightAware ADS-B
Thu 09:28:54 AM 36.4345 124.2874 350° North 464 534 34,100  Level FlightAware ADS-B
Thu 09:29:33 AM 36.5200 124.2688 350° North 464 534 34,100  Level FlightAware ADS-B
Thu 09:30:14 AM 36.6053 124.2503 350° North 464 534 34,100  Level FlightAware ADS-B
Thu 09:30:53 AM 36.6875 124.2325 350° North 465 535 34,100  Level FlightAware ADS-B
Thu 09:31:34 AM 36.7683 124.2149 350° North 463 533 34,100  Level FlightAware ADS-B
Thu 09:32:14 AM 36.8586 124.1949 350° North 464 534 34,100  Level FlightAware ADS-B
Thu 09:32:53 AM 36.9339 124.1785 350° North 468 539 34,100  Level FlightAware ADS-B
Thu 09:33:33 AM 37.0287 124.1577 350° North 468 539 34,100  Level FlightAware ADS-B
Thu 09:34:13 AM 37.1132 124.1390 350° North 469 540 34,100  Level FlightAware ADS-B
Thu 09:34:53 AM 37.1980 124.1107 337° Northwest 463 533 34,100  Level FlightAware ADS-B
Thu 09:35:33 AM 37.2660 124.0540 318° Northwest 449 517 34,100  Level FlightAware ADS-B
Thu 09:36:14 AM 37.3122 123.9819 304° West 438 504 34,100  Level FlightAware ADS-B
Thu 09:36:53 AM 37.3624 123.8896 304° West 437 503 34,100  Level FlightAware ADS-B
Thu 09:37:34 AM 37.4012 123.8182 306° West 440 506 34,100  Level FlightAware ADS-B
Thu 09:38:14 AM 37.4585 123.7240 307° West 439 505 34,100  Level FlightAware ADS-B
Thu 09:38:50 AM 37.5006 123.6541 307° West 438 504 34,100  Level FlightAware ADS-B
Thu 09:39:32 AM 37.5551 123.5630 307° West 438 504 34,100  Level FlightAware ADS-B
Thu 09:40:12 AM 37.6015 123.4857 307° West 439 505 34,100  Level FlightAware ADS-B
Thu 09:40:54 AM 37.6524 123.4051 312° West 443 510 34,100  Level FlightAware ADS-B
Thu 09:41:33 AM 37.7093 123.3320 314° West 443 510 34,100  Level FlightAware ADS-B
Thu 09:42:34 AM 37.7990 123.2171 315° West 440 506 34,100  Level FlightAware ADS-B
Thu 09:44:33 AM 37.9566 123.0151 314° West 441 507 34,100  Level FlightAware ADS-B
Thu 09:46:17 AM 38.1195 122.8066 315° West 442 509 34,100  Level FlightAware ADS-B (ZSQD / TAO)
Thu 09:46:37 AM 38.1209 122.8048 315° West 441 507 34,100  Level FlightAware ADS-B (ZSQD / TAO)
Thu 09:47:00 AM 38.1789 122.7303 315° West 441 507 34,100 -194 Level FlightAware ADS-B (ZSQD / TAO)
Thu 09:51:47 AM 38.7145 122.5271 North 477 549 33,100 -194 Descending FlightAware ADS-B (ZSQD / TAO)
Thu 09:52:09 AM 38.7597 122.5343 North 477 549 33,100  Level FlightAware ADS-B (ZSQD / TAO)
Thu 09:52:30 AM 38.8083 122.5422 North 477 549 33,100  Level FlightAware ADS-B (ZSQD / TAO)
Thu 09:53:37 AM 38.9496 122.5649 North 471 542 33,100  Level FlightAware ADS-B (ZSQD / TAO)
Thu 09:56:00 AM 39.1636 122.6708 21° North  Level Estimated
Thu 09:57:00 AM 39.2533 122.7154 21° North  Level Estimated
Thu 09:58:00 AM 39.3430 122.7602 21° North  Level Estimated
Thu 09:59:00 AM 39.4327 122.8051 21° North  Level Estimated
Thu 10:00:00 AM 39.5223 122.8500 21° North  Level Estimated
Thu 10:01:00 AM 39.6120 122.8951 21° North  Level Estimated
Thu 10:02:00 AM 39.7016 122.9403 21° North  Level Estimated
Thu 10:03:00 AM 39.7912 122.9857 21° North  Level Estimated
Thu 10:04:00 AM 39.8808 123.0311 21° North  Level Estimated
Thu 10:05:00 AM 39.9704 123.0767 21° North  Level Estimated
Thu 10:06:00 AM 40.0600 123.1224 21° North  Level Estimated
Thu 10:07:00 AM 40.1495 123.1682 21° North  Level Estimated
Thu 10:08:00 AM 40.2391 123.2141 21° North  Level Estimated
Thu 10:09:00 AM 40.3286 123.2601 21° North  Level Estimated
Thu 10:10:00 AM 40.4181 123.3063 21° North  Level Estimated
Thu 10:11:00 AM 40.5075 123.3526 21° North  Level Estimated
Thu 10:12:00 AM 40.5970 123.3990 22° Northeast  Level Estimated
Thu 10:13:00 AM 40.6864 123.4455 22° Northeast  Level Estimated
Thu 10:14:00 AM 40.7758 123.4922 22° Northeast  Level Estimated
Thu 10:15:00 AM 40.8652 123.5390 22° Northeast  Level Estimated
Thu 10:16:00 AM 40.9546 123.5859 22° Northeast  Level Estimated
Thu 10:17:00 AM 41.0440 123.6329 22° Northeast  Level Estimated
Thu 10:18:00 AM 41.1333 123.6801 22° Northeast  Level Estimated
Thu 10:19:00 AM 41.2226 123.7274 22° Northeast  Level Estimated
Thu 10:20:00 AM 41.3119 123.7748 22° Northeast  Level Estimated
Thu 10:21:00 AM 41.4012 123.8224 22° Northeast  Level Estimated
Thu 10:22:00 AM 41.4905 123.8701 22° Northeast  Level Estimated
Thu 10:23:00 AM 41.5797 123.9179 22° Northeast  Level Estimated
Thu 10:24:00 AM 41.6690 123.9659 22° Northeast  Level Estimated
Thu 10:25:00 AM 41.7582 124.0139 22° Northeast  Level Estimated
Thu 10:26:00 AM 41.8473 124.0622 22° Northeast  Level Estimated
Thu 10:27:00 AM 41.9365 124.1105 22° Northeast  Level Estimated
Thu 10:28:00 AM 42.0257 124.1590 22° Northeast  Level Estimated
Thu 10:29:00 AM 42.1148 124.2076 22° Northeast  Level Estimated
Thu 10:30:00 AM 42.2039 124.2564 22° Northeast  Level Estimated
Thu 10:31:00 AM 42.2929 124.3053 22° Northeast  Level Estimated
Thu 10:32:00 AM 42.3820 124.3543 22° Northeast  Level Estimated
Thu 10:33:00 AM 42.4711 124.4035 22° Northeast  Level Estimated
Thu 10:34:00 AM 42.5601 124.4529 22° Northeast  Level Estimated
Thu 10:35:00 AM 42.6491 124.5023 22° Northeast  Level Estimated
Thu 10:36:00 AM 42.7380 124.5519 22° Northeast  Level Estimated
Thu 10:37:00 AM 42.8270 124.6017 22° Northeast  Level Estimated
Thu 10:38:00 AM 42.9159 124.6516 22° Northeast  Level Estimated
Thu 10:39:00 AM 43.0048 124.7016 22° Northeast  Level Estimated
Thu 10:40:00 AM 43.0937 124.7518 22° Northeast  Level Estimated
Thu 10:41:00 AM 43.1826 124.8021 22° Northeast  Level Estimated
Thu 10:42:00 AM 43.2714 124.8525 22° Northeast  Level Estimated
Thu 10:43:00 AM 43.3603 124.9032 23° Northeast  Level Estimated
Thu 10:44:00 AM 43.4491 124.9539 23° Northeast  Level Estimated
Thu 10:45:00 AM 43.5378 125.0049 23° Northeast  Level Estimated
Thu 10:46:00 AM 43.6266 125.0559 23° Northeast  Level Estimated
Thu 10:47:00 AM 43.7153 125.1071 23° Northeast  Level Estimated
Thu 10:48:00 AM 43.8040 125.1585 23° Northeast  Level Estimated
Thu 10:49:00 AM 43.8927 125.2100 23° Northeast  Level Estimated
Thu 10:50:00 AM 43.9814 125.2617 23° Northeast  Level Estimated
Thu 10:51:00 AM 44.0700 125.3135 23° Northeast  Level Estimated
Thu 10:52:00 AM 44.1586 125.3655 23° Northeast  Level Estimated
Thu 10:53:00 AM 44.2472 125.4176 23° Northeast  Level Estimated
Thu 10:54:00 AM 44.3358 125.4699 23° Northeast  Level Estimated
Thu 10:55:00 AM 44.4244 125.5224 23° Northeast  Level Estimated
Thu 10:56:00 AM 44.5129 125.5750 23° Northeast  Level Estimated
Thu 10:57:00 AM 44.6014 125.6278 23° Northeast  Level Estimated
Thu 10:58:00 AM 44.6898 125.6807 23° Northeast  Level Estimated
Thu 10:59:00 AM 44.7783 125.7338 23° Northeast  Level Estimated
Thu 11:00:00 AM 44.8667 125.7871 23° Northeast  Level Estimated
Thu 11:01:00 AM 44.9551 125.8405 23° Northeast  Level Estimated
Thu 11:02:00 AM 45.0435 125.8941 23° Northeast  Level Estimated
Thu 11:03:00 AM 45.1318 125.9479 23° Northeast  Level Estimated
Thu 11:04:00 AM 45.2201 126.0018 23° Northeast  Level Estimated
Thu 11:05:00 AM 45.3084 126.0559 23° Northeast  Level Estimated
Thu 11:06:00 AM 45.3967 126.1101 23° Northeast  Level Estimated
Thu 11:07:00 AM 45.4850 126.1646 23° Northeast  Level Estimated
Thu 11:08:00 AM 45.5732 126.2192 23° Northeast  Level Estimated
Thu 11:09:00 AM 45.6234 126.2503 23° Northeast  Level Estimated

Login

Don't have an account? Register now (free) for customized features, flight alerts, and more!